Time;durP1;ratioP1;P1;durP2;ratioP2;P2;SDS_P1;SDS_P2;PMS_P1;PMS_P2;Temp;Humidity;BMP_temperature;BMP_pressure;BME280_temperature;BME280_humidity;BME280_pressure;Samples;Min_cycle;Max_cycle;Signal;HPM_P1;HPM_P2
2023/08/10 00:00:50;;;;;;;1.40;1.10;;;19.10;76.00;;;;;;4962219;28;20135;-32
2023/08/10 00:03:17;;;;;;;2.40;1.50;;;20.90;75.10;;;;;;4961979;28;20475;-34
2023/08/10 00:05:43;;;;;;;1.42;1.30;;;19.70;83.10;;;;;;4961755;28;20138;-36
2023/08/10 00:08:11;;;;;;;1.33;1.08;;;;;;;;;;4960297;28;20142;-37
2023/08/10 00:10:38;;;;;;;1.80;1.30;;;20.10;83.70;;;;;;4962140;28;20130;-33
2023/08/10 00:13:04;;;;;;;2.15;1.20;;;19.40;82.80;;;;;;4959768;28;20077;-37
2023/08/10 00:15:31;;;;;;;1.25;1.08;;;19.70;72.10;;;;;;4962146;28;20091;-36
2023/08/10 00:17:59;;;;;;;1.90;1.20;;;19.80;65.30;;;;;;4960612;28;20504;-36
2023/08/10 00:20:26;;;;;;;2.15;1.20;;;;;;;;;;4962234;28;20224;-35
2023/08/10 00:22:53;;;;;;;1.88;1.33;;;;;;;;;;4959953;28;20400;-35
2023/08/10 00:25:21;;;;;;;1.65;1.17;;;19.70;83.30;;;;;;4958838;28;20143;-38
2023/08/10 00:27:48;;;;;;;2.72;1.42;;;20.00;81.10;;;;;;4961677;28;20113;-34
2023/08/10 00:30:15;;;;;;;2.00;1.20;;;20.50;83.50;;;;;;4959936;28;20122;-37
2023/08/10 00:32:42;;;;;;;3.88;1.40;;;;;;;;;;4961124;28;20123;-32
2023/08/10 00:35:10;;;;;;;1.52;1.17;;;19.70;83.40;;;;;;4961886;28;20101;-36
2023/08/10 00:37:37;;;;;;;1.17;1.08;;;20.70;83.90;;;;;;4959429;28;20161;-36
2023/08/10 00:40:05;;;;;;;1.85;1.20;;;19.70;77.00;;;;;;4960557;28;20137;-35
2023/08/10 00:42:32;;;;;;;2.38;1.20;;;20.30;72.40;;;;;;4961686;28;20058;-37
2023/08/10 00:44:58;;;;;;;2.47;1.20;;;20.10;83.40;;;;;;4960425;28;20131;-35
2023/08/10 00:47:26;;;;;;;2.17;1.20;;;19.30;68.10;;;;;;4959756;28;20066;-35
2023/08/10 00:49:53;;;;;;;2.42;1.20;;;19.50;83.10;;;;;;4961840;28;20100;-36
2023/08/10 00:52:21;;;;;;;2.60;1.20;;;18.50;68.60;;;;;;4960083;28;20075;-35
2023/08/10 00:54:47;;;;;;;2.45;1.65;;;20.00;72.00;;;;;;4960444;28;20134;-36
2023/08/10 00:57:14;;;;;;;2.60;1.20;;;;;;;;;;4961595;28;20130;-34
2023/08/10 00:59:41;;;;;;;1.45;1.00;;;19.30;83.00;;;;;;4960446;28;20130;-34
2023/08/10 01:02:08;;;;;;;1.70;1.20;;;19.10;69.50;;;;;;4960169;28;20122;-35
2023/08/10 01:04:35;;;;;;;3.42;1.38;;;18.60;68.70;;;;;;4961345;28;20125;-35
2023/08/10 01:07:06;;;;;;;1.98;1.30;;;19.70;78.50;;;;;;4960283;28;20127;-34
2023/08/10 01:09:38;;;;;;;1.50;1.00;;;19.00;65.40;;;;;;4959730;28;20388;-33
2023/08/10 01:12:11;;;;;;;2.60;1.20;;;19.70;74.30;;;;;;4958673;28;20489;-35
2023/08/10 01:14:41;;;;;;;3.17;1.30;;;20.00;83.80;;;;;;4959019;28;20145;-35
2023/08/10 01:17:12;;;;;;;2.33;1.30;;;20.50;83.90;;;;;;4959801;28;20133;-37
2023/08/10 01:19:39;;;;;;;1.70;1.08;;;19.70;83.50;;;;;;4958830;28;20134;-35
2023/08/10 01:22:09;;;;;;;1.77;1.30;;;19.60;83.40;;;;;;4959580;28;20130;-35
2023/08/10 01:24:41;;;;;;;2.65;1.20;;;19.40;78.40;;;;;;4961586;28;20058;-37
2023/08/10 01:27:10;;;;;;;1.67;1.13;;;19.70;83.50;;;;;;4960847;28;20039;-37
2023/08/10 01:29:36;;;;;;;2.13;1.20;;;19.10;69.10;;;;;;4961400;28;20424;-36
2023/08/10 01:32:03;;;;;;;1.30;1.13;;;19.90;83.70;;;;;;4960067;28;20130;-37
2023/08/10 01:34:30;;;;;;;2.20;1.15;;;18.40;78.90;;;;;;4960714;28;20122;-36
2023/08/10 01:36:57;;;;;;;2.40;1.30;;;19.60;69.80;;;;;;4958311;28;20078;-35
2023/08/10 01:39:24;;;;;;;1.77;1.30;;;;;;;;;;4960060;28;20504;-32
2023/08/10 01:41:51;;;;;;;1.23;1.10;;;19.90;83.80;;;;;;4959361;28;20131;-37
2023/08/10 01:44:19;;;;;;;1.88;1.30;;;19.90;83.40;;;;;;4956323;28;20047;-34
2023/08/10 01:46:46;;;;;;;1.38;1.10;;;20.00;84.00;;;;;;4959668;28;20126;-35
2023/08/10 01:49:13;;;;;;;1.70;1.10;;;19.40;83.10;;;;;;4960972;28;20122;-36
2023/08/10 01:51:40;;;;;;;2.65;1.30;;;19.20;83.50;;;;;;4959787;28;20130;-39
2023/08/10 01:54:07;;;;;;;2.95;1.30;;;20.30;84.00;;;;;;4959762;28;20142;-34
2023/08/10 01:56:34;;;;;;;1.88;1.27;;;19.50;71.20;;;;;;4961071;28;20133;-32
2023/08/10 01:59:01;;;;;;;1.75;1.27;;;19.70;83.60;;;;;;4962643;28;20125;-36
2023/08/10 02:01:29;;;;;;;1.90;1.15;;;19.40;83.60;;;;;;4963340;28;20118;-38
2023/08/10 02:03:57;;;;;;;1.52;1.23;;;19.80;83.80;;;;;;4954934;28;20122;-37
2023/08/10 02:06:23;;;;;;;2.15;1.30;;;19.60;83.70;;;;;;4963522;28;20051;-35
2023/08/10 02:08:50;;;;;;;1.65;1.17;;;20.70;79.40;;;;;;4964985;28;20156;-36
2023/08/10 02:11:17;;;;;;;1.25;1.13;;;19.90;77.30;;;;;;4954080;28;20083;-35
2023/08/10 02:13:43;;;;;;;1.85;1.10;;;19.30;83.40;;;;;;4954310;28;20051;-36
2023/08/10 02:16:11;;;;;;;3.05;1.20;;;19.60;83.10;;;;;;4954081;28;20525;-38
2023/08/10 02:18:39;;;;;;;2.03;1.10;;;19.70;83.50;;;;;;4960096;28;20047;-38
2023/08/10 02:21:06;;;;;;;2.17;1.30;;;19.40;83.30;;;;;;4954138;28;20043;-36
2023/08/10 02:23:35;;;;;;;2.15;1.25;;;;;;;;;;4954193;28;20129;-33
2023/08/10 02:26:02;;;;;;;1.15;1.05;;;;;;;;;;4957889;28;20057;-38
2023/08/10 02:28:28;;;;;;;2.05;1.20;;;19.90;84.20;;;;;;4960106;28;20130;-35
2023/08/10 02:30:55;;;;;;;2.35;1.05;;;;;;;;;;4958635;28;20150;-36
2023/08/10 02:33:22;;;;;;;1.52;1.02;;;19.60;83.30;;;;;;4959507;28;20122;-38
2023/08/10 02:35:50;;;;;;;2.10;1.20;;;19.50;65.20;;;;;;4960175;28;20274;-35
2023/08/10 02:38:17;;;;;;;1.88;1.10;;;19.70;83.10;;;;;;4958476;28;20584;-34
2023/08/10 02:40:44;;;;;;;1.95;1.35;;;;;;;;;;4959921;28;20121;-36
2023/08/10 02:43:11;;;;;;;2.75;1.35;;;19.80;83.30;;;;;;4958277;28;20075;-36
2023/08/10 02:45:38;;;;;;;1.45;1.02;;;19.70;77.80;;;;;;4958771;28;20043;-35
2023/08/10 02:48:05;;;;;;;1.70;1.10;;;19.20;82.90;;;;;;4960303;28;20120;-36
2023/08/10 02:50:32;;;;;;;2.50;1.30;;;20.60;75.30;;;;;;4963584;28;20062;-36
2023/08/10 02:53:00;;;;;;;1.20;1.10;;;19.50;65.20;;;;;;4960102;28;20130;-34
2023/08/10 02:55:27;;;;;;;2.15;1.25;;;19.20;75.90;;;;;;4962357;28;20145;-35
2023/08/10 02:57:54;;;;;;;2.78;1.33;;;;;;;;;;4963524;28;20137;-33
2023/08/10 03:00:21;;;;;;;1.25;1.05;;;19.70;83.20;;;;;;4961928;28;20560;-38
2023/08/10 03:02:50;;;;;;;2.63;1.42;;;19.00;82.90;;;;;;4961877;28;20126;-34
2023/08/10 03:05:18;;;;;;;2.10;1.45;;;19.30;72.30;;;;;;4963563;28;20046;-36
2023/08/10 03:07:44;;;;;;;1.80;1.20;;;19.80;71.30;;;;;;4962611;28;20047;-36
2023/08/10 03:10:12;;;;;;;2.08;1.30;;;18.40;82.70;;;;;;4962603;28;20089;-36
2023/08/10 03:12:39;;;;;;;1.38;0.95;;;18.30;82.40;;;;;;4961320;28;20126;-38
2023/08/10 03:15:09;;;;;;;2.28;1.20;;;19.10;83.10;;;;;;4961889;28;20134;-34
2023/08/10 03:17:36;;;;;;;2.58;1.30;;;20.00;83.50;;;;;;4963141;28;20521;-39
2023/08/10 03:20:06;;;;;;;1.55;1.20;;;;;;;;;;4961785;28;20134;-33
2023/08/10 03:22:33;;;;;;;1.45;1.05;;;19.60;78.40;;;;;;4960971;28;20769;-35
2023/08/10 03:25:00;;;;;;;2.00;1.20;;;19.30;83.00;;;;;;4962354;28;20074;-37
2023/08/10 03:27:28;;;;;;;1.30;1.10;;;19.80;83.70;;;;;;4960803;28;20078;-35
2023/08/10 03:29:54;;;;;;;3.05;1.30;;;19.90;83.80;;;;;;4963036;28;20138;-38
2023/08/10 03:32:21;;;;;;;1.85;1.17;;;19.90;70.70;;;;;;4961529;28;20126;-34
2023/08/10 03:34:48;;;;;;;1.83;1.13;;;;;;;;;;4962236;28;20122;-36
2023/08/10 03:37:15;;;;;;;1.88;1.33;;;;;;;;;;4957911;28;20142;-34
2023/08/10 03:39:42;;;;;;;1.35;1.00;;;19.60;83.20;;;;;;4962162;28;20130;-38
2023/08/10 03:42:09;;;;;;;1.70;1.10;;;19.10;82.90;;;;;;4962560;28;20118;-36
2023/08/10 03:44:37;;;;;;;1.40;1.02;;;19.10;65.20;;;;;;4960010;28;20067;-34
2023/08/10 03:47:04;;;;;;;1.52;1.10;;;;;;;;;;4963725;28;20121;-34
2023/08/10 03:49:31;;;;;;;1.77;1.15;;;;;;;;;;4971067;28;20138;-34
2023/08/10 03:51:58;;;;;;;1.45;1.10;;;;;;;;;;4959717;28;20122;-33
2023/08/10 03:54:26;;;;;;;2.67;1.30;;;19.40;83.50;;;;;;4961737;28;20142;-35
2023/08/10 03:56:53;;;;;;;2.05;1.20;;;;;;;;;;4960604;28;20061;-33
2023/08/10 03:59:20;;;;;;;1.33;1.10;;;19.80;83.50;;;;;;4961058;28;20047;-35
2023/08/10 04:01:48;;;;;;;1.40;1.25;;;19.10;74.70;;;;;;4960911;28;20118;-37
2023/08/10 04:04:15;;;;;;;1.67;1.23;;;19.20;83.20;;;;;;4962358;28;20054;-37
2023/08/10 04:06:42;;;;;;;2.13;1.10;;;19.60;83.70;;;;;;4961403;28;20134;-39
2023/08/10 04:09:09;;;;;;;3.50;1.23;;;20.30;76.40;;;;;;4958850;28;20126;-39
2023/08/10 04:11:36;;;;;;;1.38;1.10;;;;;;;;;;4962913;28;20050;-35
2023/08/10 04:14:03;;;;;;;2.88;1.13;;;19.60;83.50;;;;;;4961243;28;20126;-36
2023/08/10 04:16:30;;;;;;;3.38;1.10;;;19.10;83.50;;;;;;4961618;28;20126;-37
2023/08/10 04:18:58;;;;;;;2.55;1.10;;;19.40;74.50;;;;;;4961170;28;20473;-37
2023/08/10 04:21:25;;;;;;;2.17;1.20;;;;;;;;;;4962197;28;20047;-36
2023/08/10 04:23:52;;;;;;;2.13;1.40;;;19.60;83.70;;;;;;4968084;28;20412;-40
2023/08/10 04:26:19;;;;;;;3.33;1.20;;;18.90;67.60;;;;;;4958544;28;20126;-33
2023/08/10 04:28:45;;;;;;;2.22;1.17;;;19.20;83.60;;;;;;4952106;28;20452;-35
2023/08/10 04:31:12;;;;;;;2.72;1.17;;;20.50;83.90;;;;;;4953911;28;20455;-39
2023/08/10 04:33:40;;;;;;;2.42;1.10;;;19.10;74.50;;;;;;4970925;28;20405;-37
2023/08/10 04:36:08;;;;;;;1.80;1.20;;;19.60;83.80;;;;;;4970834;28;20056;-37
2023/08/10 04:38:35;;;;;;;1.77;1.20;;;19.40;83.40;;;;;;4970949;28;20055;-38
2023/08/10 04:41:02;;;;;;;1.30;1.20;;;19.00;82.00;;;;;;4971126;28;20058;-38
2023/08/10 04:43:28;;;;;;;2.10;1.30;;;18.30;82.80;;;;;;4963542;28;20070;-37
2023/08/10 04:45:55;;;;;;;2.20;1.13;;;;;;;;;;4966962;28;20134;-39
2023/08/10 04:48:22;;;;;;;3.45;1.30;;;19.40;83.70;;;;;;4970896;28;20134;-37
2023/08/10 04:50:49;;;;;;;1.45;1.10;;;19.10;83.70;;;;;;4971095;28;20134;-35
2023/08/10 04:53:17;;;;;;;2.20;1.30;;;19.30;65.40;;;;;;4970417;28;20397;-34
2023/08/10 04:55:44;;;;;;;2.33;1.15;;;;;;;;;;4971040;28;20135;-35
2023/08/10 04:58:11;;;;;;;1.60;1.20;;;19.60;83.60;;;;;;4970747;28;20050;-37
2023/08/10 05:00:38;;;;;;;1.13;1.02;;;;;;;;;;4966265;28;20130;-35
2023/08/10 05:03:05;;;;;;;2.70;1.30;;;19.70;83.60;;;;;;4951139;28;20078;-40
2023/08/10 05:05:32;;;;;;;2.00;1.10;;;;;;;;;;4961651;28;20119;-33
2023/08/10 05:07:59;;;;;;;2.58;1.40;;;19.80;84.00;;;;;;4959101;28;20050;-39
2023/08/10 05:10:27;;;;;;;1.63;1.10;;;19.30;83.70;;;;;;4970121;28;20139;-37
2023/08/10 05:12:54;;;;;;;1.70;1.20;;;19.60;83.80;;;;;;4970383;28;20133;-38
2023/08/10 05:15:20;;;;;;;1.48;1.10;;;19.70;75.90;;;;;;4970443;28;20130;-39
2023/08/10 05:17:47;;;;;;;1.63;1.25;;;19.70;83.50;;;;;;4955976;28;20134;-40
2023/08/10 05:20:14;;;;;;;2.22;1.20;;;19.10;83.70;;;;;;4951017;28;20138;-37
2023/08/10 05:22:41;;;;;;;1.98;1.20;;;19.00;78.30;;;;;;4950019;28;20044;-37
2023/08/10 05:25:09;;;;;;;1.40;1.10;;;19.80;84.00;;;;;;4954582;28;20053;-38
2023/08/10 05:27:37;;;;;;;1.63;1.13;;;19.10;83.70;;;;;;4966962;28;20079;-38
2023/08/10 05:30:08;;;;;;;2.67;1.40;;;18.80;83.30;;;;;;4950985;28;20496;-39
2023/08/10 05:32:35;;;;;;;1.65;1.10;;;;;;;;;;4950767;28;20097;-35
2023/08/10 05:35:03;;;;;;;2.78;1.30;;;20.00;84.00;;;;;;4952669;28;20130;-40
2023/08/10 05:37:30;;;;;;;1.38;1.20;;;18.40;83.10;;;;;;4963817;28;20055;-37
2023/08/10 05:39:57;;;;;;;1.75;1.20;;;18.90;83.40;;;;;;4970161;28;20051;-37
2023/08/10 05:42:23;;;;;;;1.92;1.20;;;18.60;79.40;;;;;;4969704;28;20125;-39
2023/08/10 05:44:52;;;;;;;1.63;1.20;;;19.40;84.00;;;;;;4970284;28;20134;-40
2023/08/10 05:47:18;;;;;;;2.60;1.15;;;19.00;83.80;;;;;;4970336;28;20050;-40
2023/08/10 05:49:46;;;;;;;1.92;1.17;;;;;;;;;;4963586;28;20443;-36
2023/08/10 05:52:12;;;;;;;2.30;1.10;;;19.60;83.70;;;;;;4959358;28;20126;-39
2023/08/10 05:54:39;;;;;;;1.40;1.13;;;;;;;;;;4959511;28;20134;-35
2023/08/10 05:57:06;;;;;;;1.75;1.20;;;20.20;84.00;;;;;;4961258;28;20131;-37
2023/08/10 05:59:33;;;;;;;1.65;1.10;;;18.40;83.40;;;;;;4959541;28;20484;-35
2023/08/10 06:02:01;;;;;;;2.22;1.20;;;19.40;65.60;;;;;;4959875;28;20051;-35
2023/08/10 06:04:28;;;;;;;1.80;1.20;;;;;;;;;;4960696;28;20126;-35
2023/08/10 06:06:55;;;;;;;1.40;1.20;;;18.30;83.40;;;;;;4955876;28;20047;-37
2023/08/10 06:09:22;;;;;;;1.98;1.17;;;;;;;;;;4968013;28;20108;-36
2023/08/10 06:11:49;;;;;;;2.35;1.80;;;18.30;83.00;;;;;;4969756;28;20057;-38
2023/08/10 06:14:16;;;;;;;1.73;1.20;;;18.20;69.30;;;;;;4969781;28;20581;-33
2023/08/10 06:16:43;;;;;;;1.60;1.17;;;19.10;83.40;;;;;;4958709;28;20089;-31
2023/08/10 06:19:14;;;;;;;1.77;1.20;;;19.70;83.80;;;;;;4950538;28;20193;-32
2023/08/10 06:21:41;;;;;;;2.17;1.15;;;;;;;;;;4955109;28;20108;-32
2023/08/10 06:24:09;;;;;;;1.98;1.20;;;;;;;;;;4966584;28;20127;-32
2023/08/10 06:26:36;;;;;;;1.60;1.30;;;19.70;84.10;;;;;;4956842;28;20051;-31
2023/08/10 06:29:03;;;;;;;1.58;1.30;;;19.80;68.90;;;;;;4953908;28;20055;-32
2023/08/10 06:31:30;;;;;;;1.58;1.20;;;19.40;83.70;;;;;;4953508;28;20798;-30
2023/08/10 06:33:57;;;;;;;2.03;1.30;;;;;;;;;;4953311;28;20043;-32
2023/08/10 06:36:26;;;;;;;2.30;1.30;;;20.00;84.00;;;;;;4957813;28;20073;-29
2023/08/10 06:38:53;;;;;;;2.00;1.17;;;;;;;;;;4972855;28;20104;-34
2023/08/10 06:41:20;;;;;;;1.63;1.27;;;19.20;83.80;;;;;;4969438;28;20051;-30
2023/08/10 06:43:47;;;;;;;4.13;1.48;;;20.30;72.00;;;;;;4953117;28;20059;-30
2023/08/10 06:46:14;;;;;;;1.45;1.20;;;19.40;83.80;;;;;;4953714;28;20130;-31
2023/08/10 06:48:40;;;;;;;1.52;1.10;;;19.30;83.80;;;;;;4953496;28;20138;-30
2023/08/10 06:51:08;;;;;;;1.63;1.10;;;;;;;;;;4953243;28;20139;-31
2023/08/10 06:53:36;;;;;;;1.90;1.20;;;20.40;84.10;;;;;;4953204;29;20126;-31
2023/08/10 06:56:03;;;;;;;3.08;1.20;;;18.30;83.30;;;;;;4953271;28;20583;-30
2023/08/10 06:58:29;;;;;;;1.73;1.20;;;20.50;71.30;;;;;;4966426;28;20055;-31
2023/08/10 07:00:56;;;;;;;1.20;1.05;;;18.40;83.00;;;;;;4972561;28;20138;-31
2023/08/10 07:03:23;;;;;;;1.30;1.10;;;19.10;83.70;;;;;;4972380;28;20130;-30
2023/08/10 07:05:50;;;;;;;3.83;1.30;;;19.80;83.70;;;;;;4972420;28;20129;-31
2023/08/10 07:08:17;;;;;;;1.92;1.20;;;18.90;83.70;;;;;;4972745;28;20077;-30
2023/08/10 07:10:45;;;;;;;1.88;1.30;;;19.10;66.60;;;;;;4970150;28;20156;-32
2023/08/10 07:13:12;;;;;;;3.92;1.30;;;;;;;;;;4956954;28;20130;-33
2023/08/10 07:15:40;;;;;;;1.98;1.25;;;19.20;83.60;;;;;;4953171;28;20058;-31
2023/08/10 07:18:06;;;;;;;2.45;1.52;;;19.50;83.60;;;;;;4953072;28;20134;-31
2023/08/10 07:20:35;;;;;;;2.67;1.17;;;;;;;;;;4956759;28;20085;-33
2023/08/10 07:23:03;;;;;;;1.45;1.10;;;;;;;;;;4952825;28;20059;-34
2023/08/10 07:25:30;;;;;;;2.50;1.50;;;19.50;84.20;;;;;;4956728;28;20066;-30
2023/08/10 07:27:59;;;;;;;1.50;1.20;;;18.20;83.10;;;;;;4963067;28;20555;-31
2023/08/10 07:30:25;;;;;;;1.45;1.10;;;20.10;84.30;;;;;;4952923;28;20130;-30
2023/08/10 07:32:52;;;;;;;1.77;1.20;;;;;;;;;;4952366;28;20134;-32
2023/08/10 07:35:19;;;;;;;2.13;1.20;;;19.60;83.80;;;;;;4959224;28;20165;-31
2023/08/10 07:37:48;;;;;;;1.75;1.20;;;20.40;68.60;;;;;;4971362;28;20062;-32
2023/08/10 07:40:15;;;;;;;2.35;1.30;;;19.80;77.80;;;;;;4971779;28;20055;-31
2023/08/10 07:42:42;;;;;;;1.42;1.10;;;20.00;84.30;;;;;;4971760;28;20126;-31
2023/08/10 07:45:10;;;;;;;2.85;1.05;;;19.50;83.40;;;;;;4971793;28;20130;-31
2023/08/10 07:47:37;;;;;;;2.55;1.30;;;19.30;67.70;;;;;;4972006;28;20046;-33
2023/08/10 07:50:05;;;;;;;2.58;1.20;;;;;;;;;;4972085;28;20054;-30
2023/08/10 07:52:32;;;;;;;1.15;1.02;;;19.80;83.50;;;;;;4971103;28;20066;-31
2023/08/10 07:54:58;;;;;;;1.35;1.00;;;18.60;82.90;;;;;;4971359;28;20043;-30
2023/08/10 07:57:25;;;;;;;1.95;1.20;;;20.70;69.80;;;;;;4971830;28;20058;-31
2023/08/10 07:59:52;;;;;;;2.88;1.40;;;20.50;83.90;;;;;;4963458;28;20560;-30
2023/08/10 08:02:20;;;;;;;1.63;1.27;;;19.90;84.10;;;;;;4962681;28;20122;-32
2023/08/10 08:04:47;;;;;;;4.40;1.30;;;19.70;83.60;;;;;;4953321;28;20477;-30
2023/08/10 08:07:13;;;;;;;3.10;1.38;;;19.50;68.20;;;;;;4960800;28;20122;-32
2023/08/10 08:09:41;;;;;;;4.53;1.42;;;;;;;;;;4970704;28;20567;-33
2023/08/10 08:12:08;;;;;;;1.35;1.05;;;;;;;;;;4964834;28;20591;-36
2023/08/10 08:14:35;;;;;;;1.73;1.25;;;19.60;83.50;;;;;;4953582;28;20486;-30
2023/08/10 08:17:02;;;;;;;2.53;1.33;;;;;;;;;;4961070;28;20061;-32
2023/08/10 08:19:32;;;;;;;1.42;1.20;;;18.60;83.10;;;;;;4964154;28;20131;-30
2023/08/10 08:21:58;;;;;;;1.60;1.30;;;20.80;79.10;;;;;;4952021;29;20051;-30
2023/08/10 08:24:25;;;;;;;3.22;1.20;;;19.70;83.90;;;;;;4951748;29;20209;-31
2023/08/10 08:26:53;;;;;;;3.00;1.30;;;;;;;;;;4968370;28;20133;-34
2023/08/10 08:29:19;;;;;;;1.70;1.02;;;20.20;82.50;;;;;;4971338;28;20047;-36
2023/08/10 08:31:47;;;;;;;1.20;1.05;;;;;;;;;;4968125;28;20055;-33
2023/08/10 08:34:14;;;;;;;1.50;1.10;;;20.10;83.90;;;;;;4965480;28;20051;-39
2023/08/10 08:36:42;;;;;;;3.63;1.10;;;20.00;81.50;;;;;;4970558;28;20047;-36
2023/08/10 08:39:10;;;;;;;3.72;1.20;;;19.40;80.20;;;;;;4971081;28;20074;-40
2023/08/10 08:41:37;;;;;;;1.45;1.30;;;19.80;65.40;;;;;;4962215;28;20592;-35
2023/08/10 08:44:05;;;;;;;1.60;0.95;;;20.00;65.50;;;;;;4967408;28;20054;-37
2023/08/10 08:46:33;;;;;;;1.30;1.02;;;20.50;83.60;;;;;;4970436;28;20486;-37
2023/08/10 08:49:00;;;;;;;1.80;1.20;;;20.20;83.30;;;;;;4970696;28;20488;-36
2023/08/10 08:51:26;;;;;;;1.50;1.13;;;20.10;83.10;;;;;;4970848;28;20145;-39
2023/08/10 08:53:55;;;;;;;3.63;1.02;;;20.90;70.70;;;;;;4970112;28;20129;-35
2023/08/10 08:56:21;;;;;;;1.83;0.98;;;20.50;81.90;;;;;;4970727;28;20129;-36
2023/08/10 08:58:49;;;;;;;1.42;1.00;;;20.00;82.50;;;;;;4968695;28;20126;-32
2023/08/10 09:01:16;;;;;;;2.17;1.17;;;;;;;;;;4951547;28;20558;-31
2023/08/10 09:03:43;;;;;;;2.25;1.20;;;20.10;82.30;;;;;;4950064;29;20623;-30
2023/08/10 09:06:10;;;;;;;1.80;1.10;;;;;;;;;;4951236;28;20133;-31
2023/08/10 09:08:38;;;;;;;2.72;1.20;;;;;;;;;;4951431;28;20055;-31
2023/08/10 09:11:06;;;;;;;2.13;1.10;;;20.40;83.10;;;;;;4951273;28;20059;-32
2023/08/10 09:13:33;;;;;;;2.05;1.27;;;21.30;83.20;;;;;;4962075;28;20138;-31
2023/08/10 09:16:07;;;;;;;3.63;1.38;;;20.30;64.70;;;;;;4965960;28;20126;-30
2023/08/10 09:18:34;;;;;;;1.88;1.20;;;20.30;76.50;;;;;;4955652;28;20130;-31
2023/08/10 09:21:11;;;;;;;3.10;1.02;;;20.30;64.70;;;;;;4950590;28;20177;-32
2023/08/10 09:23:38;;;;;;;2.63;1.30;;;20.80;81.70;;;;;;4951323;28;20058;-31
2023/08/10 09:26:09;;;;;;;2.30;1.20;;;20.10;82.70;;;;;;4956699;28;20077;-31
2023/08/10 09:28:36;;;;;;;1.83;1.20;;;20.10;66.40;;;;;;4960039;28;20050;-33
2023/08/10 09:31:03;;;;;;;1.40;1.05;;;19.50;82.80;;;;;;4960722;28;20061;-31
2023/08/10 09:33:31;;;;;;;2.50;1.13;;;21.00;82.90;;;;;;4960692;28;20123;-30
2023/08/10 09:36:00;;;;;;;1.75;1.13;;;20.30;82.50;;;;;;4958829;28;20070;-29
2023/08/10 09:38:26;;;;;;;2.85;0.90;;;19.10;70.10;;;;;;4957385;28;20047;-31
2023/08/10 09:41:11;;;;;;;2.17;1.13;;;21.20;69.70;;;;;;4972896;28;20507;-30
2023/08/10 09:43:38;;;;;;;1.80;1.08;;;20.70;83.50;;;;;;4959152;28;20548;-30
2023/08/10 09:46:05;;;;;;;3.05;1.75;;;20.70;75.60;;;;;;4958800;28;20137;-31
2023/08/10 09:48:35;;;;;;;1.13;1.02;;;20.00;83.10;;;;;;4959099;28;20131;-30
2023/08/10 09:51:03;;;;;;;2.67;1.10;;;20.30;83.20;;;;;;4959667;28;20053;-30
2023/08/10 09:53:31;;;;;;;1.52;1.27;;;20.60;83.00;;;;;;4960951;28;20134;-31
2023/08/10 09:55:57;;;;;;;2.67;1.20;;;20.00;82.70;;;;;;4961166;28;20483;-30
2023/08/10 09:58:25;;;;;;;1.95;1.25;;;20.00;82.90;;;;;;4964020;28;20127;-30
2023/08/10 10:00:52;;;;;;;2.15;1.20;;;20.70;83.50;;;;;;4962469;28;20122;-30
2023/08/10 10:03:19;;;;;;;2.45;1.42;;;;;;;;;;4962619;28;20129;-34
2023/08/10 10:05:47;;;;;;;2.53;1.20;;;;;;;;;;4961869;28;20567;-32
2023/08/10 10:08:14;;;;;;;3.35;1.23;;;20.40;80.80;;;;;;4954257;28;20065;-32
2023/08/10 10:10:41;;;;;;;1.77;1.02;;;20.60;83.20;;;;;;4961505;28;20051;-30
2023/08/10 10:13:09;;;;;;;2.15;1.20;;;20.10;83.00;;;;;;4971795;28;20047;-31
2023/08/10 10:15:37;;;;;;;1.98;1.10;;;20.10;68.20;;;;;;4973118;28;20053;-32
2023/08/10 10:18:04;;;;;;;1.90;1.10;;;21.10;77.40;;;;;;4972276;28;20137;-30
2023/08/10 10:20:31;;;;;;;4.20;1.10;;;20.20;83.00;;;;;;4972904;28;20563;-30
2023/08/10 10:22:58;;;;;;;2.28;1.10;;;;;;;;;;4972926;28;20133;-35
2023/08/10 10:25:25;;;;;;;2.65;1.05;;;20.30;78.50;;;;;;4967409;28;20131;-38
2023/08/10 10:27:51;;;;;;;1.98;1.13;;;19.80;83.70;;;;;;4953521;28;20158;-38
2023/08/10 10:30:20;;;;;;;2.25;1.00;;;19.60;81.20;;;;;;4953771;28;20520;-35
2023/08/10 10:32:50;;;;;;;1.40;1.10;;;19.20;81.90;;;;;;4957829;28;20059;-36
2023/08/10 10:35:17;;;;;;;1.63;1.00;;;20.70;81.50;;;;;;4953627;29;20082;-37
2023/08/10 10:37:43;;;;;;;2.05;1.02;;;20.40;83.70;;;;;;4968178;28;20142;-37
2023/08/10 10:40:14;;;;;;;1.75;1.00;;;20.30;65.90;;;;;;4972552;28;20065;-35
2023/08/10 10:43:05;;;;;;;1.45;1.00;;;19.30;82.70;;;;;;4972099;28;20047;-35
2023/08/10 10:45:34;;;;;;;2.10;1.05;;;20.30;65.90;;;;;;4965505;28;20129;-35
2023/08/10 10:48:04;;;;;;;3.33;1.30;;;19.70;83.00;;;;;;4962212;28;20126;-35
2023/08/10 10:50:31;;;;;;;2.05;1.20;;;20.20;68.10;;;;;;4961613;28;20051;-32
2023/08/10 10:52:58;;;;;;;2.58;1.20;;;20.40;83.80;;;;;;4953368;28;20113;-30
2023/08/10 10:55:26;;;;;;;1.35;0.93;;;20.30;65.90;;;;;;4953128;28;20138;-30
2023/08/10 10:57:53;;;;;;;2.33;1.00;;;20.80;68.20;;;;;;4953406;28;20138;-35
2023/08/10 11:00:20;;;;;;;2.47;1.25;;;20.00;83.50;;;;;;4953276;28;20055;-31
2023/08/10 11:02:47;;;;;;;1.45;1.00;;;;;;;;;;4953179;28;20142;-34
2023/08/10 11:05:16;;;;;;;1.20;1.00;;;20.00;83.50;;;;;;4955239;28;20047;-30
2023/08/10 11:07:43;;;;;;;2.13;1.00;;;20.50;83.50;;;;;;4953313;28;20158;-32
2023/08/10 11:10:10;;;;;;;2.20;1.30;;;20.30;72.40;;;;;;4962166;28;20121;-31
2023/08/10 11:12:38;;;;;;;1.33;1.00;;;20.30;66.00;;;;;;4963100;28;20047;-31
2023/08/10 11:15:07;;;;;;;1.30;1.05;;;20.30;66.00;;;;;;4962146;28;20043;-32
2023/08/10 11:17:34;;;;;;;2.92;1.10;;;;;;;;;;4961400;28;20051;-36
2023/08/10 11:20:03;;;;;;;2.55;1.10;;;;;;;;;;4961574;28;20108;-36
2023/08/10 11:22:31;;;;;;;1.10;1.00;;;20.50;80.90;;;;;;4955687;28;20053;-36
2023/08/10 11:24:58;;;;;;;2.92;1.10;;;19.40;83.10;;;;;;4961095;28;20446;-36
2023/08/10 11:27:25;;;;;;;1.48;0.90;;;20.00;83.80;;;;;;4962975;28;20126;-35
2023/08/10 11:29:52;;;;;;;1.40;1.10;;;;;;;;;;4962491;28;20051;-32
2023/08/10 11:32:20;;;;;;;1.88;1.20;;;;;;;;;;4964671;28;20133;-35
2023/08/10 11:34:47;;;;;;;1.73;1.10;;;20.40;84.00;;;;;;4965174;28;20495;-37
2023/08/10 11:37:13;;;;;;;1.27;1.00;;;19.50;83.50;;;;;;4979969;28;20075;-37
2023/08/10 11:39:42;;;;;;;1.60;1.00;;;19.90;79.50;;;;;;4970612;28;20555;-31
2023/08/10 11:42:08;;;;;;;2.03;1.15;;;19.40;77.10;;;;;;4955055;28;20138;-31
2023/08/10 11:44:46;;;;;;;3.65;1.00;;;20.10;83.40;;;;;;4955088;28;20043;-31
2023/08/10 11:47:13;;;;;;;1.88;1.10;;;20.40;70.30;;;;;;4950610;29;20493;-35
2023/08/10 11:49:39;;;;;;;2.10;1.10;;;21.00;79.40;;;;;;4950264;29;20505;-36
2023/08/10 11:52:07;;;;;;;1.67;1.08;;;20.60;71.00;;;;;;4950814;28;20122;-37
2023/08/10 11:54:35;;;;;;;1.17;0.95;;;20.30;83.30;;;;;;4952610;28;20051;-37
2023/08/10 11:57:11;;;;;;;1.63;1.05;;;21.20;75.70;;;;;;4950542;28;20408;-37
2023/08/10 11:59:38;;;;;;;1.63;1.00;;;20.10;78.60;;;;;;4950601;28;20047;-36
2023/08/10 12:02:05;;;;;;;1.65;0.82;;;;;;;;;;4960722;28;20130;-38
2023/08/10 12:04:31;;;;;;;3.22;1.05;;;19.30;83.00;;;;;;4971641;28;20453;-39
2023/08/10 12:07:00;;;;;;;1.75;1.13;;;;;;;;;;4971471;28;20662;-35
2023/08/10 12:09:28;;;;;;;1.80;1.08;;;19.60;83.40;;;;;;4970762;28;20046;-40
2023/08/10 12:11:54;;;;;;;1.25;1.00;;;19.90;83.60;;;;;;4971165;28;20054;-35
2023/08/10 12:14:24;;;;;;;1.27;1.02;;;20.40;66.20;;;;;;4971305;28;20089;-38
2023/08/10 12:16:50;;;;;;;1.80;1.00;;;20.60;81.40;;;;;;4970659;28;20054;-39
2023/08/10 12:19:17;;;;;;;2.10;1.10;;;20.40;70.20;;;;;;4968838;28;20565;-36
2023/08/10 12:21:45;;;;;;;3.55;1.10;;;19.80;83.10;;;;;;4970133;28;20130;-39
2023/08/10 12:24:12;;;;;;;1.38;1.10;;;;;;;;;;4970787;28;20101;-36
2023/08/10 12:26:39;;;;;;;1.95;1.13;;;;;;;;;;4955925;28;20168;-37
2023/08/10 12:29:06;;;;;;;1.20;0.98;;;20.30;83.40;;;;;;4951921;28;20143;-37
2023/08/10 12:31:34;;;;;;;1.75;1.00;;;20.50;83.90;;;;;;4951970;28;20134;-40
2023/08/10 12:34:01;;;;;;;2.80;1.20;;;;;;;;;;4951206;28;20556;-35
2023/08/10 12:36:28;;;;;;;1.52;1.00;;;20.50;79.10;;;;;;4956451;28;20583;-36
2023/08/10 12:38:57;;;;;;;2.35;1.20;;;20.50;83.40;;;;;;4966149;28;20133;-40
2023/08/10 12:41:32;;;;;;;1.50;1.35;;;20.50;65.70;;;;;;5089351;27;20380;-38
2023/08/10 12:43:59;;;;;;;4.30;1.50;;;20.70;80.60;;;;;;5088912;28;20127;-37
2023/08/10 12:46:25;;;;;;;2.25;1.13;;;20.40;74.80;;;;;;5089347;28;20166;-37
2023/08/10 12:48:52;;;;;;;2.63;1.13;;;20.00;68.30;;;;;;5089158;28;20087;-38
2023/08/10 12:51:19;;;;;;;1.90;1.10;;;20.20;83.00;;;;;;5088567;28;20464;-39
2023/08/10 12:53:47;;;;;;;1.80;1.08;;;21.00;83.40;;;;;;5088857;28;20132;-38
2023/08/10 12:56:13;;;;;;;2.78;1.00;;;20.70;83.40;;;;;;5084490;28;20128;-36
2023/08/10 12:58:42;;;;;;;2.20;1.35;;;;;;;;;;5081509;28;20083;-37
2023/08/10 13:01:09;;;;;;;1.48;1.10;;;;;;;;;;5088801;28;20127;-35
2023/08/10 13:03:36;;;;;;;1.98;1.20;;;;;;;;;;5088610;28;20150;-39
2023/08/10 13:06:03;;;;;;;5.10;1.30;;;;;;;;;;5088604;28;20090;-35
2023/08/10 13:08:30;;;;;;;1.60;1.13;;;20.40;82.80;;;;;;5089159;28;20052;-38